Aviation Digital Data Service (ADDS)

Output produced by TAFs form (2354 UTC 24 February 2018)
found at http://aviationweather.gov/adds/tafs/
 
KTCS 242320Z 2500/2524 29008KT P6SM SKC 
     FM250600 32006KT P6SM SKC 
     FM251800 10012KT P6SM SKC